sensor_id;sensor_type;location;lat;lon;timestamp;pressure;altitude;pressure_sealevel;temperature;humidity
11339;BME280;5724;42.684;23.252;2023-11-18T00:01:46;93663.63;;;4.60;100.00
11339;BME280;5724;42.684;23.252;2023-11-18T00:04:32;93662.28;;;4.54;100.00
11339;BME280;5724;42.684;23.252;2023-11-18T00:07:17;93678.19;;;4.56;100.00
11339;BME280;5724;42.684;23.252;2023-11-18T00:10:04;93668.81;;;4.53;100.00
11339;BME280;5724;42.684;23.252;2023-11-18T00:12:50;93661.94;;;4.56;100.00
11339;BME280;5724;42.684;23.252;2023-11-18T00:15:36;93656.97;;;4.46;100.00
11339;BME280;5724;42.684;23.252;2023-11-18T00:18:22;93690.91;;;4.55;100.00
11339;BME280;5724;42.684;23.252;2023-11-18T00:21:07;93696.34;;;4.55;100.00
11339;BME280;5724;42.684;23.252;2023-11-18T00:23:53;93697.91;;;4.44;100.00
11339;BME280;5724;42.684;23.252;2023-11-18T00:26:41;93681.88;;;4.39;100.00
11339;BME280;5724;42.684;23.252;2023-11-18T00:29:27;93671.06;;;4.39;100.00
11339;BME280;5724;42.684;23.252;2023-11-18T00:32:13;93671.25;;;4.34;100.00
11339;BME280;5724;42.684;23.252;2023-11-18T00:34:59;93675.88;;;4.21;100.00
11339;BME280;5724;42.684;23.252;2023-11-18T00:37:45;93668.88;;;4.20;100.00
11339;BME280;5724;42.684;23.252;2023-11-18T00:40:30;93673.50;;;4.20;100.00
11339;BME280;5724;42.684;23.252;2023-11-18T00:43:16;93670.91;;;4.23;100.00
11339;BME280;5724;42.684;23.252;2023-11-18T00:46:02;93663.03;;;4.18;100.00
11339;BME280;5724;42.684;23.252;2023-11-18T00:48:49;93671.75;;;4.03;100.00
11339;BME280;5724;42.684;23.252;2023-11-18T00:51:35;93671.41;;;4.05;100.00
11339;BME280;5724;42.684;23.252;2023-11-18T00:54:22;93691.94;;;4.06;100.00
11339;BME280;5724;42.684;23.252;2023-11-18T00:57:08;93681.66;;;3.99;100.00
11339;BME280;5724;42.684;23.252;2023-11-18T00:59:54;93638.22;;;3.71;100.00
11339;BME280;5724;42.684;23.252;2023-11-18T01:02:40;93701.03;;;4.01;100.00
11339;BME280;5724;42.684;23.252;2023-11-18T01:05:26;93677.31;;;3.86;100.00
11339;BME280;5724;42.684;23.252;2023-11-18T01:08:12;93700.25;;;4.00;100.00
11339;BME280;5724;42.684;23.252;2023-11-18T01:10:58;93695.53;;;3.97;100.00
11339;BME280;5724;42.684;23.252;2023-11-18T01:13:43;93696.38;;;3.89;100.00
11339;BME280;5724;42.684;23.252;2023-11-18T01:16:29;93703.81;;;3.92;100.00
11339;BME280;5724;42.684;23.252;2023-11-18T01:19:15;93708.31;;;3.88;100.00
11339;BME280;5724;42.684;23.252;2023-11-18T01:22:01;93708.44;;;3.92;100.00
11339;BME280;5724;42.684;23.252;2023-11-18T01:24:51;93735.19;;;3.85;100.00
11339;BME280;5724;42.684;23.252;2023-11-18T01:27:37;93714.94;;;3.79;100.00
11339;BME280;5724;42.684;23.252;2023-11-18T01:30:23;93698.44;;;3.71;100.00
11339;BME280;5724;42.684;23.252;2023-11-18T01:33:09;93697.47;;;3.55;100.00
11339;BME280;5724;42.684;23.252;2023-11-18T01:35:55;93688.06;;;3.61;100.00
11339;BME280;5724;42.684;23.252;2023-11-18T01:38:40;93711.91;;;3.59;100.00
11339;BME280;5724;42.684;23.252;2023-11-18T01:41:26;93722.84;;;3.63;100.00
11339;BME280;5724;42.684;23.252;2023-11-18T01:44:12;93708.59;;;3.54;100.00
11339;BME280;5724;42.684;23.252;2023-11-18T01:47:04;93721.94;;;3.59;100.00
11339;BME280;5724;42.684;23.252;2023-11-18T01:49:56;93726.84;;;3.57;100.00
11339;BME280;5724;42.684;23.252;2023-11-18T01:52:42;93716.03;;;3.57;100.00
11339;BME280;5724;42.684;23.252;2023-11-18T01:55:27;93707.53;;;3.46;100.00
11339;BME280;5724;42.684;23.252;2023-11-18T01:58:14;93700.38;;;3.29;100.00
11339;BME280;5724;42.684;23.252;2023-11-18T02:01:05;93729.13;;;3.25;100.00
11339;BME280;5724;42.684;23.252;2023-11-18T02:03:53;93713.78;;;3.17;100.00
11339;BME280;5724;42.684;23.252;2023-11-18T02:06:39;93721.75;;;3.13;100.00
11339;BME280;5724;42.684;23.252;2023-11-18T02:09:25;93711.06;;;3.17;100.00
11339;BME280;5724;42.684;23.252;2023-11-18T02:12:29;93716.75;;;3.24;100.00
11339;BME280;5724;42.684;23.252;2023-11-18T02:15:21;93710.78;;;3.19;100.00
11339;BME280;5724;42.684;23.252;2023-11-18T02:18:08;93708.38;;;3.17;100.00
11339;BME280;5724;42.684;23.252;2023-11-18T02:20:55;93716.06;;;3.06;99.92
11339;BME280;5724;42.684;23.252;2023-11-18T02:23:44;93716.28;;;3.01;100.00
11339;BME280;5724;42.684;23.252;2023-11-18T02:26:33;93721.22;;;2.99;99.73
11339;BME280;5724;42.684;23.252;2023-11-18T02:29:19;93708.56;;;2.91;99.79
11339;BME280;5724;42.684;23.252;2023-11-18T02:32:22;93706.00;;;2.95;99.92
11339;BME280;5724;42.684;23.252;2023-11-18T02:35:23;93707.72;;;2.99;99.41
11339;BME280;5724;42.684;23.252;2023-11-18T02:38:11;93708.97;;;3.02;99.90
11339;BME280;5724;42.684;23.252;2023-11-18T02:40:58;93726.28;;;3.01;99.08
11339;BME280;5724;42.684;23.252;2023-11-18T02:43:49;93724.63;;;3.08;99.08
11339;BME280;5724;42.684;23.252;2023-11-18T02:46:39;93739.81;;;2.92;98.21
11339;BME280;5724;42.684;23.252;2023-11-18T02:49:25;93737.72;;;2.98;97.99
11339;BME280;5724;42.684;23.252;2023-11-18T02:52:11;93725.13;;;2.81;97.58
11339;BME280;5724;42.684;23.252;2023-11-18T02:54:57;93718.28;;;2.83;98.13
11339;BME280;5724;42.684;23.252;2023-11-18T02:57:43;93722.25;;;2.77;98.88
11339;BME280;5724;42.684;23.252;2023-11-18T03:00:29;93717.53;;;2.74;99.22
11339;BME280;5724;42.684;23.252;2023-11-18T03:03:15;93732.78;;;2.70;99.02
11339;BME280;5724;42.684;23.252;2023-11-18T03:06:00;93738.22;;;2.62;99.05
11339;BME280;5724;42.684;23.252;2023-11-18T03:08:46;93736.34;;;2.53;97.91
11339;BME280;5724;42.684;23.252;2023-11-18T03:11:32;93744.41;;;2.53;98.13
11339;BME280;5724;42.684;23.252;2023-11-18T03:14:18;93750.44;;;2.50;98.40
11339;BME280;5724;42.684;23.252;2023-11-18T03:17:05;93728.97;;;2.24;98.28
11339;BME280;5724;42.684;23.252;2023-11-18T03:19:55;93783.81;;;2.28;99.21
11339;BME280;5724;42.684;23.252;2023-11-18T03:22:40;93772.69;;;2.39;99.49
11339;BME280;5724;42.684;23.252;2023-11-18T03:25:26;93763.22;;;2.24;98.81
11339;BME280;5724;42.684;23.252;2023-11-18T03:28:12;93788.59;;;2.14;98.09
11339;BME280;5724;42.684;23.252;2023-11-18T03:30:58;93787.34;;;2.03;98.26
11339;BME280;5724;42.684;23.252;2023-11-18T03:33:44;93779.41;;;2.15;98.48
11339;BME280;5724;42.684;23.252;2023-11-18T03:36:30;93777.38;;;2.04;97.99
11339;BME280;5724;42.684;23.252;2023-11-18T03:39:16;93776.72;;;2.07;97.50
11339;BME280;5724;42.684;23.252;2023-11-18T03:42:01;93785.28;;;2.00;97.42
11339;BME280;5724;42.684;23.252;2023-11-18T03:44:47;93775.59;;;1.90;98.07
11339;BME280;5724;42.684;23.252;2023-11-18T03:47:33;93784.47;;;1.91;97.63
11339;BME280;5724;42.684;23.252;2023-11-18T03:50:19;93799.06;;;1.81;97.60
11339;BME280;5724;42.684;23.252;2023-11-18T03:53:05;93779.41;;;1.81;97.01
11339;BME280;5724;42.684;23.252;2023-11-18T03:55:51;93761.84;;;1.75;98.12
11339;BME280;5724;42.684;23.252;2023-11-18T03:58:37;93775.00;;;1.67;97.84
11339;BME280;5724;42.684;23.252;2023-11-18T04:01:24;93755.97;;;1.64;97.70
11339;BME280;5724;42.684;23.252;2023-11-18T04:04:13;93769.75;;;1.62;96.91
11339;BME280;5724;42.684;23.252;2023-11-18T04:06:59;93755.34;;;1.58;96.33
11339;BME280;5724;42.684;23.252;2023-11-18T04:09:46;93782.09;;;1.63;95.93
11339;BME280;5724;42.684;23.252;2023-11-18T04:12:32;93768.03;;;1.66;96.61
11339;BME280;5724;42.684;23.252;2023-11-18T04:15:18;93776.56;;;1.60;96.83
11339;BME280;5724;42.684;23.252;2023-11-18T04:18:04;93784.31;;;1.61;96.63
11339;BME280;5724;42.684;23.252;2023-11-18T04:20:50;93781.63;;;1.61;96.23
11339;BME280;5724;42.684;23.252;2023-11-18T04:23:40;93791.00;;;1.55;95.38
11339;BME280;5724;42.684;23.252;2023-11-18T04:26:26;93806.97;;;1.52;95.96
11339;BME280;5724;42.684;23.252;2023-11-18T04:29:12;93784.31;;;1.53;96.03
11339;BME280;5724;42.684;23.252;2023-11-18T04:31:58;93783.84;;;1.59;96.26
11339;BME280;5724;42.684;23.252;2023-11-18T04:34:45;93789.72;;;1.70;95.67
11339;BME280;5724;42.684;23.252;2023-11-18T04:37:31;93794.47;;;1.56;95.90
11339;BME280;5724;42.684;23.252;2023-11-18T04:40:17;93820.75;;;1.50;95.54
11339;BME280;5724;42.684;23.252;2023-11-18T04:43:02;93786.84;;;1.49;95.93
11339;BME280;5724;42.684;23.252;2023-11-18T04:45:48;93798.41;;;1.41;96.47
11339;BME280;5724;42.684;23.252;2023-11-18T04:48:14;93804.41;;;1.38;96.39
11339;BME280;5724;42.684;23.252;2023-11-18T04:50:43;93788.59;;;1.45;95.67
11339;BME280;5724;42.684;23.252;2023-11-18T04:53:29;93824.53;;;1.49;95.85
11339;BME280;5724;42.684;23.252;2023-11-18T04:56:15;93804.25;;;1.34;95.90
11339;BME280;5724;42.684;23.252;2023-11-18T04:59:03;93819.47;;;1.48;95.04
11339;BME280;5724;42.684;23.252;2023-11-18T05:01:52;93829.25;;;1.35;95.15
11339;BME280;5724;42.684;23.252;2023-11-18T05:04:38;93811.38;;;1.39;94.62
11339;BME280;5724;42.684;23.252;2023-11-18T05:07:24;93798.56;;;1.44;94.48
11339;BME280;5724;42.684;23.252;2023-11-18T05:10:10;93807.25;;;1.41;93.49
11339;BME280;5724;42.684;23.252;2023-11-18T05:12:57;93796.81;;;1.40;94.82
11339;BME280;5724;42.684;23.252;2023-11-18T05:16:01;93786.19;;;1.43;93.34
11339;BME280;5724;42.684;23.252;2023-11-18T05:18:48;93823.72;;;1.40;93.56
11339;BME280;5724;42.684;23.252;2023-11-18T05:21:34;93792.06;;;1.37;93.76
11339;BME280;5724;42.684;23.252;2023-11-18T05:24:20;93788.88;;;1.35;93.01
11339;BME280;5724;42.684;23.252;2023-11-18T05:27:05;93807.72;;;1.26;91.95
11339;BME280;5724;42.684;23.252;2023-11-18T05:29:52;93781.63;;;1.35;92.78
11339;BME280;5724;42.684;23.252;2023-11-18T05:32:44;93790.50;;;1.36;92.37
11339;BME280;5724;42.684;23.252;2023-11-18T05:35:31;93793.78;;;1.33;92.39
11339;BME280;5724;42.684;23.252;2023-11-18T05:38:20;93790.31;;;1.32;92.64
11339;BME280;5724;42.684;23.252;2023-11-18T05:41:11;93789.97;;;1.25;92.94
11339;BME280;5724;42.684;23.252;2023-11-18T05:44:02;93793.94;;;1.28;93.01
11339;BME280;5724;42.684;23.252;2023-11-18T05:46:48;93783.19;;;1.28;92.36
11339;BME280;5724;42.684;23.252;2023-11-18T05:49:37;93773.03;;;1.25;91.99
11339;BME280;5724;42.684;23.252;2023-11-18T05:52:23;93780.81;;;1.35;91.88
11339;BME280;5724;42.684;23.252;2023-11-18T05:55:09;93780.66;;;1.40;92.10
11339;BME280;5724;42.684;23.252;2023-11-18T05:57:55;93767.22;;;1.40;91.37
11339;BME280;5724;42.684;23.252;2023-11-18T06:00:41;93802.19;;;1.40;91.13
11339;BME280;5724;42.684;23.252;2023-11-18T06:03:26;93788.09;;;1.43;90.78
11339;BME280;5724;42.684;23.252;2023-11-18T06:06:14;93796.34;;;1.38;91.25
11339;BME280;5724;42.684;23.252;2023-11-18T06:09:01;93795.97;;;1.13;93.42
11339;BME280;5724;42.684;23.252;2023-11-18T06:11:53;93794.44;;;1.30;94.35
11339;BME280;5724;42.684;23.252;2023-11-18T06:14:40;93791.34;;;1.05;96.77
11339;BME280;5724;42.684;23.252;2023-11-18T06:17:27;93802.31;;;1.18;97.63
11339;BME280;5724;42.684;23.252;2023-11-18T06:20:13;93765.44;;;1.18;98.34
11339;BME280;5724;42.684;23.252;2023-11-18T06:22:59;93813.56;;;1.20;97.77
11339;BME280;5724;42.684;23.252;2023-11-18T06:25:45;93814.94;;;1.08;96.08
11339;BME280;5724;42.684;23.252;2023-11-18T06:28:31;93808.03;;;1.16;95.87
11339;BME280;5724;42.684;23.252;2023-11-18T06:31:22;93800.72;;;1.25;95.45
11339;BME280;5724;42.684;23.252;2023-11-18T06:34:09;93804.41;;;1.29;95.45
11339;BME280;5724;42.684;23.252;2023-11-18T06:36:55;93815.00;;;1.34;95.07
11339;BME280;5724;42.684;23.252;2023-11-18T06:39:41;93796.81;;;1.40;93.99
11339;BME280;5724;42.684;23.252;2023-11-18T06:42:29;93807.75;;;1.43;93.59
11339;BME280;5724;42.684;23.252;2023-11-18T06:45:16;93824.38;;;1.46;92.67
11339;BME280;5724;42.684;23.252;2023-11-18T06:48:04;93817.59;;;1.57;92.25
11339;BME280;5724;42.684;23.252;2023-11-18T06:50:51;93800.16;;;1.54;91.35
11339;BME280;5724;42.684;23.252;2023-11-18T06:53:36;93807.78;;;1.69;91.33
11339;BME280;5724;42.684;23.252;2023-11-18T06:56:27;93848.97;;;1.70;89.60
11339;BME280;5724;42.684;23.252;2023-11-18T06:59:13;93831.84;;;1.57;88.49
11339;BME280;5724;42.684;23.252;2023-11-18T07:01:59;93830.41;;;1.51;90.46
11339;BME280;5724;42.684;23.252;2023-11-18T07:04:45;93826.28;;;1.62;90.04
11339;BME280;5724;42.684;23.252;2023-11-18T07:07:30;93856.41;;;1.64;89.86
11339;BME280;5724;42.684;23.252;2023-11-18T07:10:17;93823.91;;;1.61;90.17
11339;BME280;5724;42.684;23.252;2023-11-18T07:13:06;93836.41;;;1.48;91.10
11339;BME280;5724;42.684;23.252;2023-11-18T07:15:54;93831.81;;;1.49;91.52
11339;BME280;5724;42.684;23.252;2023-11-18T07:18:42;93848.13;;;1.52;90.65
11339;BME280;5724;42.684;23.252;2023-11-18T07:21:28;93844.50;;;1.48;91.10
11339;BME280;5724;42.684;23.252;2023-11-18T07:24:14;93853.69;;;1.56;91.56
11339;BME280;5724;42.684;23.252;2023-11-18T07:26:59;93851.16;;;1.51;91.62
11339;BME280;5724;42.684;23.252;2023-11-18T07:29:45;93863.50;;;1.52;90.91
11339;BME280;5724;42.684;23.252;2023-11-18T07:32:31;93864.91;;;1.49;90.96
11339;BME280;5724;42.684;23.252;2023-11-18T07:35:17;93848.13;;;1.52;91.19
11339;BME280;5724;42.684;23.252;2023-11-18T07:38:03;93852.56;;;1.48;91.94
11339;BME280;5724;42.684;23.252;2023-11-18T07:40:49;93841.16;;;1.51;92.45
11339;BME280;5724;42.684;23.252;2023-11-18T07:43:38;93863.78;;;1.41;91.09
11339;BME280;5724;42.684;23.252;2023-11-18T07:46:27;93871.38;;;1.31;92.25
11339;BME280;5724;42.684;23.252;2023-11-18T07:49:14;93850.81;;;1.43;91.35
11339;BME280;5724;42.684;23.252;2023-11-18T07:52:02;93897.16;;;1.32;91.48
11339;BME280;5724;42.684;23.252;2023-11-18T07:54:48;93863.91;;;1.28;91.93
11339;BME280;5724;42.684;23.252;2023-11-18T07:57:36;93890.69;;;1.33;93.24
11339;BME280;5724;42.684;23.252;2023-11-18T08:00:22;93885.75;;;1.35;91.89
11339;BME280;5724;42.684;23.252;2023-11-18T08:03:09;93878.47;;;1.27;91.78
11339;BME280;5724;42.684;23.252;2023-11-18T08:05:59;93868.03;;;1.34;91.76
11339;BME280;5724;42.684;23.252;2023-11-18T08:08:44;93870.25;;;1.32;91.95
11339;BME280;5724;42.684;23.252;2023-11-18T08:11:31;93848.72;;;1.32;90.38
11339;BME280;5724;42.684;23.252;2023-11-18T08:14:17;93880.56;;;1.38;90.15
11339;BME280;5724;42.684;23.252;2023-11-18T08:17:03;93894.94;;;1.34;90.80
11339;BME280;5724;42.684;23.252;2023-11-18T08:19:50;93895.22;;;1.24;90.73
11339;BME280;5724;42.684;23.252;2023-11-18T08:22:38;93879.31;;;1.36;90.96
11339;BME280;5724;42.684;23.252;2023-11-18T08:25:24;93886.44;;;1.40;91.32
11339;BME280;5724;42.684;23.252;2023-11-18T08:28:11;93894.84;;;1.48;91.04
11339;BME280;5724;42.684;23.252;2023-11-18T08:30:58;93890.72;;;1.41;91.25
11339;BME280;5724;42.684;23.252;2023-11-18T08:33:44;93881.22;;;1.53;91.38
11339;BME280;5724;42.684;23.252;2023-11-18T08:36:31;93890.38;;;1.43;91.11
11339;BME280;5724;42.684;23.252;2023-11-18T08:39:19;93889.16;;;1.49;91.70
11339;BME280;5724;42.684;23.252;2023-11-18T08:42:06;93905.13;;;1.37;90.39
11339;BME280;5724;42.684;23.252;2023-11-18T08:44:53;93904.94;;;1.42;91.61
11339;BME280;5724;42.684;23.252;2023-11-18T08:47:45;93913.19;;;1.37;90.95
11339;BME280;5724;42.684;23.252;2023-11-18T08:50:31;93923.13;;;1.28;91.02
11339;BME280;5724;42.684;23.252;2023-11-18T08:53:17;93912.69;;;1.35;90.88
11339;BME280;5724;42.684;23.252;2023-11-18T08:56:03;93930.72;;;1.26;90.30
11339;BME280;5724;42.684;23.252;2023-11-18T08:58:51;93930.84;;;1.21;90.92
11339;BME280;5724;42.684;23.252;2023-11-18T09:01:37;93936.25;;;1.29;91.22
11339;BME280;5724;42.684;23.252;2023-11-18T09:04:25;93959.22;;;1.27;91.03
11339;BME280;5724;42.684;23.252;2023-11-18T09:07:11;93912.94;;;1.16;92.17
11339;BME280;5724;42.684;23.252;2023-11-18T09:09:57;93916.44;;;1.17;92.35
11339;BME280;5724;42.684;23.252;2023-11-18T09:12:43;93903.31;;;1.24;92.64
11339;BME280;5724;42.684;23.252;2023-11-18T09:15:30;93897.44;;;1.22;91.94
11339;BME280;5724;42.684;23.252;2023-11-18T09:18:16;93892.41;;;1.29;91.11
11339;BME280;5724;42.684;23.252;2023-11-18T09:21:04;93942.75;;;1.28;91.23
11339;BME280;5724;42.684;23.252;2023-11-18T09:23:51;93883.34;;;1.25;91.94
11339;BME280;5724;42.684;23.252;2023-11-18T09:26:37;93928.34;;;1.33;90.61
11339;BME280;5724;42.684;23.252;2023-11-18T09:29:23;93881.38;;;1.39;91.41
11339;BME280;5724;42.684;23.252;2023-11-18T09:32:11;93899.41;;;1.38;91.20
11339;BME280;5724;42.684;23.252;2023-11-18T09:34:58;93885.19;;;1.47;90.56
11339;BME280;5724;42.684;23.252;2023-11-18T09:37:44;93891.81;;;1.40;91.18
11339;BME280;5724;42.684;23.252;2023-11-18T09:40:32;93866.16;;;1.43;90.80
11339;BME280;5724;42.684;23.252;2023-11-18T09:43:24;93885.19;;;1.47;90.92
11339;BME280;5724;42.684;23.252;2023-11-18T09:46:23;93878.34;;;1.40;89.39
11339;BME280;5724;42.684;23.252;2023-11-18T09:49:19;93879.03;;;1.46;89.91
11339;BME280;5724;42.684;23.252;2023-11-18T09:52:16;93875.22;;;1.47;89.31
11339;BME280;5724;42.684;23.252;2023-11-18T09:55:05;93898.97;;;1.54;89.29
11339;BME280;5724;42.684;23.252;2023-11-18T09:58:04;93865.72;;;1.50;89.28
11339;BME280;5724;42.684;23.252;2023-11-18T10:00:57;93887.41;;;1.53;88.97
11339;BME280;5724;42.684;23.252;2023-11-18T10:03:44;93848.78;;;1.49;88.33
11339;BME280;5724;42.684;23.252;2023-11-18T10:06:31;93893.28;;;1.47;88.40
11339;BME280;5724;42.684;23.252;2023-11-18T10:09:20;93866.00;;;1.39;87.86
11339;BME280;5724;42.684;23.252;2023-11-18T10:12:13;93855.25;;;1.48;88.06
11339;BME280;5724;42.684;23.252;2023-11-18T10:15:02;93876.81;;;1.48;87.17
11339;BME280;5724;42.684;23.252;2023-11-18T10:17:57;93872.03;;;1.54;88.07
11339;BME280;5724;42.684;23.252;2023-11-18T10:20:46;93871.44;;;1.57;87.91
11339;BME280;5724;42.684;23.252;2023-11-18T10:23:32;93880.31;;;1.66;88.42
11339;BME280;5724;42.684;23.252;2023-11-18T10:26:19;93873.84;;;1.67;88.64
11339;BME280;5724;42.684;23.252;2023-11-18T10:29:10;93886.97;;;1.68;86.68
11339;BME280;5724;42.684;23.252;2023-11-18T10:32:07;93892.50;;;1.63;85.94
11339;BME280;5724;42.684;23.252;2023-11-18T10:35:03;93867.03;;;1.69;86.02
11339;BME280;5724;42.684;23.252;2023-11-18T10:37:50;93896.63;;;1.61;85.21
11339;BME280;5724;42.684;23.252;2023-11-18T10:40:36;93866.22;;;1.69;86.25
11339;BME280;5724;42.684;23.252;2023-11-18T10:43:23;93848.16;;;1.61;86.43
11339;BME280;5724;42.684;23.252;2023-11-18T10:46:15;93867.19;;;1.64;87.14
11339;BME280;5724;42.684;23.252;2023-11-18T10:49:01;93928.47;;;1.67;86.19
11339;BME280;5724;42.684;23.252;2023-11-18T10:51:50;93913.22;;;1.54;85.68
11339;BME280;5724;42.684;23.252;2023-11-18T10:54:36;93904.06;;;1.55;85.71
11339;BME280;5724;42.684;23.252;2023-11-18T10:57:24;93857.19;;;1.56;86.32
11339;BME280;5724;42.684;23.252;2023-11-18T11:00:12;93878.09;;;1.59;87.22
11339;BME280;5724;42.684;23.252;2023-11-18T11:03:04;93882.38;;;1.60;86.39
11339;BME280;5724;42.684;23.252;2023-11-18T11:05:50;93884.75;;;1.62;86.94
11339;BME280;5724;42.684;23.252;2023-11-18T11:08:37;93863.53;;;1.69;86.22
11339;BME280;5724;42.684;23.252;2023-11-18T11:11:28;93864.34;;;1.78;87.10
11339;BME280;5724;42.684;23.252;2023-11-18T11:14:22;93903.63;;;1.79;85.90
11339;BME280;5724;42.684;23.252;2023-11-18T11:17:13;93891.72;;;1.71;85.24
11339;BME280;5724;42.684;23.252;2023-11-18T11:20:07;93888.88;;;1.68;85.87
11339;BME280;5724;42.684;23.252;2023-11-18T11:29:24;93898.06;;;1.67;85.77
11339;BME280;5724;42.684;23.252;2023-11-18T11:32:18;93891.59;;;1.77;84.73
11339;BME280;5724;42.684;23.252;2023-11-18T11:35:15;93858.31;;;1.72;86.42
11339;BME280;5724;42.684;23.252;2023-11-18T11:38:04;93887.28;;;1.67;86.22
11339;BME280;5724;42.684;23.252;2023-11-18T11:40:55;93880.00;;;1.67;86.48
11339;BME280;5724;42.684;23.252;2023-11-18T11:43:48;93873.81;;;1.58;86.51
11339;BME280;5724;42.684;23.252;2023-11-18T11:46:35;93879.19;;;1.58;86.43
11339;BME280;5724;42.684;23.252;2023-11-18T11:49:23;93857.19;;;1.56;87.05
11339;BME280;5724;42.684;23.252;2023-11-18T11:52:33;93864.00;;;1.62;86.86
11339;BME280;5724;42.684;23.252;2023-11-18T11:55:45;93846.28;;;1.70;85.34
11339;BME280;5724;42.684;23.252;2023-11-18T11:58:34;93843.91;;;1.77;86.19
11339;BME280;5724;42.684;23.252;2023-11-18T12:01:26;93838.81;;;1.67;86.65
11339;BME280;5724;42.684;23.252;2023-11-18T12:04:19;93830.88;;;1.62;86.23
11339;BME280;5724;42.684;23.252;2023-11-18T12:07:09;93862.28;;;1.66;86.01
11339;BME280;5724;42.684;23.252;2023-11-18T12:09:58;93863.22;;;1.79;86.55
11339;BME280;5724;42.684;23.252;2023-11-18T12:12:45;93870.66;;;1.73;85.50
11339;BME280;5724;42.684;23.252;2023-11-18T12:15:53;93846.28;;;1.70;86.72
11339;BME280;5724;42.684;23.252;2023-11-18T12:22:17;93893.03;;;1.74;86.48
11339;BME280;5724;42.684;23.252;2023-11-18T12:28:16;93876.56;;;1.84;86.52
11339;BME280;5724;42.684;23.252;2023-11-18T12:31:06;93870.84;;;1.77;85.14
11339;BME280;5724;42.684;23.252;2023-11-18T12:34:01;93906.50;;;1.74;85.92
11339;BME280;5724;42.684;23.252;2023-11-18T12:43:48;93883.97;;;1.79;87.09
11339;BME280;5724;42.684;23.252;2023-11-18T12:46:53;93921.56;;;1.84;86.62
11339;BME280;5724;42.684;23.252;2023-11-18T12:49:41;93860.72;;;1.74;87.22
11339;BME280;5724;42.684;23.252;2023-11-18T12:52:27;93887.00;;;1.77;87.11
11339;BME280;5724;42.684;23.252;2023-11-18T12:55:16;93857.53;;;1.81;86.74
11339;BME280;5724;42.684;23.252;2023-11-18T12:58:04;93874.78;;;1.80;86.72
11339;BME280;5724;42.684;23.252;2023-11-18T13:00:51;93865.47;;;1.86;86.42
11339;BME280;5724;42.684;23.252;2023-11-18T13:03:37;93889.84;;;1.81;85.87
11339;BME280;5724;42.684;23.252;2023-11-18T13:06:23;93872.09;;;1.80;86.40
11339;BME280;5724;42.684;23.252;2023-11-18T13:09:14;93901.59;;;1.85;86.38
11339;BME280;5724;42.684;23.252;2023-11-18T13:12:11;93913.00;;;1.90;86.17
11339;BME280;5724;42.684;23.252;2023-11-18T13:15:00;93906.78;;;1.81;85.71
11339;BME280;5724;42.684;23.252;2023-11-18T13:18:04;93909.81;;;1.80;86.20
11339;BME280;5724;42.684;23.252;2023-11-18T13:20:56;93914.25;;;1.76;86.04
11339;BME280;5724;42.684;23.252;2023-11-18T13:23:52;93917.06;;;1.70;86.73
11339;BME280;5724;42.684;23.252;2023-11-18T13:26:38;93911.22;;;1.68;87.15
11339;BME280;5724;42.684;23.252;2023-11-18T13:29:24;93909.75;;;1.62;86.80
11339;BME280;5724;42.684;23.252;2023-11-18T13:32:10;93914.19;;;1.58;88.62
11339;BME280;5724;42.684;23.252;2023-11-18T13:34:57;93942.38;;;1.61;89.25
11339;BME280;5724;42.684;23.252;2023-11-18T13:37:45;93920.53;;;1.62;88.29
11339;BME280;5724;42.684;23.252;2023-11-18T13:40:46;93904.06;;;1.64;89.07
11339;BME280;5724;42.684;23.252;2023-11-18T13:43:45;94025.75;;;1.66;88.34
11339;BME280;5724;42.684;23.252;2023-11-18T13:46:32;93927.66;;;1.58;88.78
11339;BME280;5724;42.684;23.252;2023-11-18T13:49:20;93925.44;;;1.60;89.23
11339;BME280;5724;42.684;23.252;2023-11-18T13:52:07;93952.53;;;1.64;88.97
11339;BME280;5724;42.684;23.252;2023-11-18T13:54:56;93973.75;;;1.57;88.22
11339;BME280;5724;42.684;23.252;2023-11-18T13:57:44;93952.34;;;1.52;89.24
11339;BME280;5724;42.684;23.252;2023-11-18T14:00:30;93946.63;;;1.53;90.13
11339;BME280;5724;42.684;23.252;2023-11-18T14:03:17;93977.66;;;1.51;90.72
11339;BME280;5724;42.684;23.252;2023-11-18T14:06:10;93941.22;;;1.44;90.48
11339;BME280;5724;42.684;23.252;2023-11-18T14:08:56;93946.31;;;1.46;90.43
11339;BME280;5724;42.684;23.252;2023-11-18T14:11:41;94001.75;;;1.47;90.07
11339;BME280;5724;42.684;23.252;2023-11-18T14:14:27;93973.34;;;1.41;91.04
11339;BME280;5724;42.684;23.252;2023-11-18T14:17:13;94011.66;;;1.38;90.63
11339;BME280;5724;42.684;23.252;2023-11-18T14:19:59;93960.06;;;1.44;91.65
11339;BME280;5724;42.684;23.252;2023-11-18T14:22:45;94014.22;;;1.43;91.19
11339;BME280;5724;42.684;23.252;2023-11-18T14:25:34;93984.88;;;1.33;92.31
11339;BME280;5724;42.684;23.252;2023-11-18T14:28:20;94004.19;;;1.35;92.50
11339;BME280;5724;42.684;23.252;2023-11-18T14:31:10;93988.03;;;1.35;92.59
11339;BME280;5724;42.684;23.252;2023-11-18T14:33:56;94028.91;;;1.37;92.77
11339;BME280;5724;42.684;23.252;2023-11-18T14:36:44;93992.34;;;1.36;93.13
11339;BME280;5724;42.684;23.252;2023-11-18T14:39:30;93999.31;;;1.37;92.32
11339;BME280;5724;42.684;23.252;2023-11-18T14:42:16;94017.84;;;1.38;92.17
11339;BME280;5724;42.684;23.252;2023-11-18T14:45:01;94057.59;;;1.41;92.01
11339;BME280;5724;42.684;23.252;2023-11-18T14:47:48;94010.28;;;1.49;92.22
11339;BME280;5724;42.684;23.252;2023-11-18T14:50:34;94013.91;;;1.44;91.70
11339;BME280;5724;42.684;23.252;2023-11-18T14:53:20;94029.63;;;1.51;92.41
11339;BME280;5724;42.684;23.252;2023-11-18T14:56:06;94016.91;;;1.43;91.67
11339;BME280;5724;42.684;23.252;2023-11-18T14:58:52;94033.25;;;1.47;92.50
11339;BME280;5724;42.684;23.252;2023-11-18T15:01:38;94043.81;;;1.43;91.66
11339;BME280;5724;42.684;23.252;2023-11-18T15:04:30;94046.88;;;1.50;91.80
11339;BME280;5724;42.684;23.252;2023-11-18T15:07:16;94041.91;;;1.43;91.72
11339;BME280;5724;42.684;23.252;2023-11-18T15:10:02;94045.91;;;1.46;91.33
11339;BME280;5724;42.684;23.252;2023-11-18T15:12:50;94059.38;;;1.46;90.77
11339;BME280;5724;42.684;23.252;2023-11-18T15:15:41;94037.34;;;1.44;91.56
11339;BME280;5724;42.684;23.252;2023-11-18T15:18:27;94068.72;;;1.49;91.06
11339;BME280;5724;42.684;23.252;2023-11-18T15:21:13;94032.09;;;1.39;91.40